ADDS METAR Data INFO
IDs: Format: Raw Decoded Include TAF

Data at: 1844 UTC 17 Oct 2017

KARR 171752Z 23014G27KT 10SM CLR 20/06 A3018 RMK AO2 PK WND 21027/1743 SLP220 T02000061 10200 20067 58009
KARR 171652Z 24015G22KT 10SM CLR 18/06 A3020 RMK AO2 SLP227 T01830061
KARR 171552Z 23013KT 10SM CLR 16/07 A3021 RMK AO2 SLP231 T01610072
KARR 171452Z 22013G21KT 10SM CLR 14/07 A3021 RMK AO2 SLP230 T01440067 50000
KARR 171352Z 21009KT 10SM CLR 11/06 A3022 RMK AO2 SLP235 T01060061
KARR 171252Z 20008KT 10SM CLR 08/05 A3021 RMK AO2 SLP234 T00830050
KARR 171152Z 19005KT 10SM CLR 07/04 A3021 RMK AO2 SLP232 T00670039 10078 20067 58002
KARR 171052Z AUTO 19005KT 10SM CLR 07/04 A3022 RMK AO2 SLP234 T00670039
KARR 170952Z AUTO 20007KT 10SM CLR 08/04 A3021 RMK AO2 SLP230 T00780039
KARR 170852Z AUTO 20004KT 10SM CLR 08/04 A3021 RMK AO2 SLP232 T00780039 53001
KARR 170752Z AUTO 18005KT 10SM CLR 07/04 A3021 RMK AO2 SLP231 T00670039
KARR 170652Z AUTO 19004KT 10SM CLR 07/04 A3021 RMK AO2 SLP231 T00720039
KARR 170552Z 21006KT 10SM CLR 08/04 A3021 RMK AO2 SLP231 T00780039 10111 20078 401720039 58004
KARR 170452Z 21005KT 10SM CLR 08/04 A3021 RMK AO2 SLP232 T00830039
KARR 170352Z 20005KT 10SM CLR 09/03 A3022 RMK AO2 SLP236 T00890033
KARR 170252Z 20006KT 10SM CLR 09/03 A3022 RMK AO2 SLP236 T00940033 55002
KARR 170152Z 19004KT 10SM CLR 08/04 A3022 RMK AO2 SLP235 T00830044
KARR 170052Z 17003KT 10SM CLR 08/05 A3022 RMK AO2 SLP238 T00830050
KARR 162352Z 21004KT 10SM CLR 11/04 A3023 RMK AO2 SLP240 T01110039 10172 20111 55004
KARR 162252Z 23005KT 10SM CLR 14/03 A3022 RMK AO2 SLP235 T01440033
KARR 162152Z 24008KT 10SM CLR 16/03 A3023 RMK AO2 SLP237 T01610028
KARR 162052Z AUTO 29009KT 10SM CLR 17/02 A3024 RMK AO2 SLP242 T01670017 56020
KARR 161952Z 25011KT 10SM CLR 17/02 A3025 RMK AO2 SLP245 T01670022
KARR 161852Z 27008KT 10SM CLR 16/02 A3027 RMK AO2 SLP251 T01610022
KARR 161752Z 25012KT 10SM CLR 16/05 A3030 RMK AO2 SLP263 T01610050 10161 20039 58008
KARR 161652Z 22009KT 10SM CLR 14/06 A3031 RMK AO2 SLP267 T01440056
KARR 161552Z 23009KT 10SM CLR 13/06 A3033 RMK AO2 SLP272 T01280056
KARR 161452Z 23008KT 10SM CLR 10/06 A3032 RMK AO2 SLP271 T01000061 50004
KARR 161352Z 22007KT 4SM BR CLR 08/06 A3033 RMK AO2 SLP274 T00780056
KARR 161252Z 00000KT 10SM CLR 05/04 A3032 RMK AO2 SLP272 T00500044
KARR 161152Z 00000KT 8SM CLR 04/04 A3031 RMK AO2 SLP269 T00440039 10056 20039 51010
KARR 161052Z AUTO 22003KT 10SM BKN070 06/04 A3030 RMK AO2 SLP265 T00560044
KARR 160952Z AUTO 24003KT 10SM BKN065 OVC090 06/05 A3030 RMK AO2 SLP262 T00560050
KARR 160852Z AUTO 24003KT 10SM CLR 04/03 A3028 RMK AO2 SLP257 T00440033 53002
KARR 160752Z AUTO 00000KT 10SM CLR 05/04 A3028 RMK AO2 SLP255 T00500039
KARR 160652Z AUTO 27004KT 10SM CLR 04/04 A3028 RMK AO2 SLP256 T00440039